createdAt,value
2023-01-20T00:00:18.073Z,32.33
2023-01-20T00:02:48.795Z,32.05
2023-01-20T00:05:18.179Z,31.23
2023-01-20T00:07:47.335Z,27.33
2023-01-20T00:10:16.920Z,29.75
2023-01-20T00:12:46.129Z,30.08
2023-01-20T00:15:15.889Z,28.08
2023-01-20T00:17:45.167Z,30.38
2023-01-20T00:20:16.310Z,32.90
2023-01-20T00:22:45.744Z,28.83
2023-01-20T00:25:15.939Z,28.20
2023-01-20T00:27:46.744Z,25.65
2023-01-20T00:30:16.557Z,26.75
2023-01-20T00:32:45.862Z,28.08
2023-01-20T00:35:16.802Z,25.75
2023-01-20T00:37:45.982Z,25.73
2023-01-20T00:40:15.645Z,30.60
2023-01-20T00:42:44.933Z,30.88
2023-01-20T00:45:14.240Z,33.40
2023-01-20T00:47:43.686Z,46.35
2023-01-20T00:50:14.875Z,50.80
2023-01-20T00:52:45.650Z,37.67
2023-01-20T00:55:15.405Z,45.85
2023-01-20T00:57:44.736Z,33.92
2023-01-20T01:00:14.984Z,37.17
2023-01-20T01:02:46.309Z,30.13
2023-01-20T01:05:15.785Z,31.00
2023-01-20T01:07:46.670Z,29.33
2023-01-20T01:10:16.256Z,31.90
2023-01-20T01:12:45.470Z,29.60
2023-01-20T01:15:15.460Z,29.67
2023-01-20T01:17:45.172Z,29.30
2023-01-20T01:20:15.365Z,28.77
2023-01-20T01:22:45.916Z,27.63
2023-01-20T01:25:15.487Z,27.13
2023-01-20T01:27:45.471Z,25.80
2023-01-20T01:30:15.259Z,25.98
2023-01-20T01:32:44.528Z,26.25
2023-01-20T01:35:13.975Z,26.40
2023-01-20T01:37:43.304Z,25.30
2023-01-20T01:40:14.386Z,27.67
2023-01-20T01:42:43.675Z,24.85
2023-01-20T01:45:34.250Z,24.15
2023-01-20T01:48:10.301Z,24.25
2023-01-20T01:50:45.964Z,25.17
2023-01-20T01:53:16.558Z,24.73
2023-01-20T01:55:52.509Z,23.45
2023-01-20T01:58:28.345Z,23.80
2023-01-20T02:00:57.538Z,23.50
2023-01-20T02:03:34.993Z,24.38
2023-01-20T02:06:05.847Z,24.77
2023-01-20T02:08:36.173Z,24.95
2023-01-20T02:11:09.962Z,22.80
2023-01-20T02:13:39.152Z,23.58
2023-01-20T02:16:16.719Z,23.75
2023-01-20T02:19:02.987Z,23.23
2023-01-20T02:22:09.966Z,22.17
2023-01-20T02:25:25.185Z,22.13
2023-01-20T02:28:45.088Z,20.80
2023-01-20T02:32:02.610Z,20.70
2023-01-20T02:34:37.987Z,21.35
2023-01-20T02:37:15.660Z,22.27
2023-01-20T02:39:56.755Z,24.08
2023-01-20T02:42:33.668Z,23.23
2023-01-20T02:45:10.273Z,23.42
2023-01-20T02:47:50.762Z,23.17
2023-01-20T02:50:30.274Z,23.02
2023-01-20T02:53:02.650Z,23.35
2023-01-20T02:55:39.135Z,23.17
2023-01-20T02:58:13.282Z,23.35
2023-01-20T03:00:49.526Z,24.05
2023-01-20T03:03:25.513Z,17.87
2023-01-20T03:05:59.931Z,23.27
2023-01-20T03:08:33.043Z,21.75
2023-01-20T03:11:07.275Z,22.92
2023-01-20T03:13:42.992Z,22.10
2023-01-20T03:16:15.590Z,23.80
2023-01-20T03:18:45.108Z,22.48
2023-01-20T03:21:15.806Z,23.58
2023-01-20T03:23:48.248Z,24.50
2023-01-20T03:26:20.238Z,23.27
2023-01-20T03:28:50.616Z,25.73
2023-01-20T03:31:23.461Z,23.52
2023-01-20T03:33:55.413Z,24.35
2023-01-20T03:36:29.213Z,24.88
2023-01-20T03:39:01.840Z,23.45
2023-01-20T03:41:41.735Z,23.13
2023-01-20T03:44:20.475Z,24.48
2023-01-20T03:46:56.920Z,22.73
2023-01-20T03:49:35.092Z,19.05
2023-01-20T03:52:12.494Z,25.85
2023-01-20T03:54:49.852Z,27.75
2023-01-20T03:57:23.555Z,27.42
2023-01-20T03:59:54.787Z,27.02
2023-01-20T04:02:25.194Z,26.25
2023-01-20T04:04:55.840Z,27.08
2023-01-20T04:07:27.862Z,25.67
2023-01-20T04:10:04.023Z,25.75
2023-01-20T04:12:34.518Z,25.87
2023-01-20T04:15:03.779Z,26.23
2023-01-20T04:17:35.171Z,25.27
2023-01-20T04:20:10.517Z,25.00
2023-01-20T04:22:50.375Z,27.27
2023-01-20T04:25:30.979Z,27.08
2023-01-20T04:28:00.153Z,26.10
2023-01-20T04:30:29.648Z,25.75
2023-01-20T04:32:58.892Z,27.60
2023-01-20T04:35:28.225Z,27.00
2023-01-20T04:37:59.220Z,28.65
2023-01-20T04:40:28.568Z,29.23
2023-01-20T04:42:57.759Z,28.55
2023-01-20T04:45:27.161Z,31.20
2023-01-20T04:47:56.282Z,31.75
2023-01-20T04:50:25.381Z,31.35
2023-01-20T04:52:56.713Z,31.05
2023-01-20T04:55:27.772Z,24.60
2023-01-20T04:57:56.883Z,24.70
2023-01-20T05:00:26.636Z,23.63
2023-01-20T05:02:59.195Z,21.80
2023-01-20T05:05:28.389Z,22.92
2023-01-20T05:07:59.523Z,25.15
2023-01-20T05:10:30.106Z,26.40
2023-01-20T05:12:59.257Z,27.33
2023-01-20T05:15:29.303Z,27.65
2023-01-20T05:17:58.549Z,27.48
2023-01-20T05:20:27.633Z,26.25
2023-01-20T05:22:56.725Z,25.52
2023-01-20T05:25:25.923Z,24.77
2023-01-20T05:27:56.498Z,24.40
2023-01-20T05:30:25.631Z,24.27
2023-01-20T05:32:54.882Z,26.95
2023-01-20T05:35:24.126Z,28.13
2023-01-20T05:37:57.089Z,26.63
2023-01-20T05:40:26.140Z,27.00
2023-01-20T05:43:00.486Z,28.10
2023-01-20T05:45:30.243Z,28.65
2023-01-20T05:48:00.600Z,25.85
2023-01-20T05:50:30.904Z,24.83
2023-01-20T05:53:00.470Z,25.52
2023-01-20T05:55:29.551Z,23.25
2023-01-20T05:58:05.208Z,22.05
2023-01-20T06:00:34.458Z,23.83
2023-01-20T06:03:03.799Z,24.55
2023-01-20T06:05:35.955Z,22.92
2023-01-20T06:08:05.206Z,24.08
2023-01-20T06:10:35.175Z,23.92
2023-01-20T06:13:05.750Z,25.65
2023-01-20T06:15:34.859Z,22.58
2023-01-20T06:18:04.258Z,21.70
2023-01-20T06:20:33.463Z,21.95
2023-01-20T06:23:02.601Z,21.65
2023-01-20T06:25:31.736Z,21.88
2023-01-20T06:28:01.800Z,21.60
2023-01-20T06:30:32.757Z,20.63
2023-01-20T06:33:02.063Z,19.95
2023-01-20T06:35:31.232Z,21.67
2023-01-20T06:38:00.301Z,20.17
2023-01-20T06:40:29.603Z,21.00
2023-01-20T06:42:59.535Z,19.85
2023-01-20T06:45:32.509Z,19.42
2023-01-20T06:48:03.181Z,17.75
2023-01-20T06:50:32.941Z,18.67
2023-01-20T06:53:02.171Z,18.95
2023-01-20T06:55:31.686Z,21.05
2023-01-20T06:58:00.888Z,19.20
2023-01-20T07:00:32.579Z,19.00
2023-01-20T07:03:03.572Z,19.10
2023-01-20T07:05:33.012Z,18.38
2023-01-20T07:08:02.126Z,20.08
2023-01-20T07:10:31.227Z,18.52
2023-01-20T07:13:00.371Z,18.33
2023-01-20T07:15:29.426Z,18.05
2023-01-20T07:17:59.799Z,17.65
2023-01-20T07:20:30.340Z,19.52
2023-01-20T07:23:01.080Z,18.30
2023-01-20T07:25:30.139Z,18.38
2023-01-20T07:27:59.415Z,19.00
2023-01-20T07:30:28.777Z,17.60
2023-01-20T07:32:57.937Z,17.52
2023-01-20T07:35:27.119Z,18.42
2023-01-20T07:37:57.568Z,17.98
2023-01-20T07:40:26.633Z,18.77
2023-01-20T07:42:55.823Z,20.20
2023-01-20T07:45:24.997Z,21.23
2023-01-20T07:47:57.272Z,20.27
2023-01-20T07:50:26.400Z,20.65
2023-01-20T07:52:55.622Z,18.30
2023-01-20T07:55:26.139Z,18.35
2023-01-20T07:57:56.174Z,18.30
2023-01-20T08:00:25.766Z,17.52
2023-01-20T08:02:54.991Z,17.00
2023-01-20T08:05:24.147Z,15.52
2023-01-20T08:07:53.749Z,16.25
2023-01-20T08:10:23.120Z,15.13
2023-01-20T08:12:53.680Z,15.18
2023-01-20T08:15:22.760Z,16.40
2023-01-20T08:17:55.185Z,15.00
2023-01-20T08:20:24.500Z,15.25
2023-01-20T08:22:53.824Z,13.95
2023-01-20T08:25:22.919Z,14.02
2023-01-20T08:27:53.351Z,15.27
2023-01-20T08:30:22.687Z,14.32
2023-01-20T08:32:52.119Z,14.45
2023-01-20T08:35:24.065Z,14.85
2023-01-20T08:37:53.198Z,13.75
2023-01-20T08:40:22.523Z,14.43
2023-01-20T08:42:53.133Z,14.95
2023-01-20T08:45:22.499Z,14.70
2023-01-20T08:47:51.876Z,13.52
2023-01-20T08:50:22.738Z,14.07
2023-01-20T08:52:51.823Z,14.18
2023-01-20T08:55:21.141Z,14.02
2023-01-20T08:57:50.423Z,14.02
2023-01-20T09:00:22.396Z,13.30
2023-01-20T09:02:51.544Z,13.55
2023-01-20T09:05:22.497Z,12.90
2023-01-20T09:07:51.644Z,12.73
2023-01-20T09:10:21.223Z,12.95
2023-01-20T09:12:50.385Z,13.15
2023-01-20T09:15:21.141Z,11.45
2023-01-20T09:17:50.283Z,12.20
2023-01-20T09:20:19.882Z,12.95
2023-01-20T09:22:48.982Z,11.70
2023-01-20T09:25:19.238Z,12.07
2023-01-20T09:27:48.355Z,11.48
2023-01-20T09:30:18.669Z,12.15
2023-01-20T09:32:53.214Z,12.15
2023-01-20T09:35:22.335Z,11.40
2023-01-20T09:38:08.951Z,11.20
2023-01-20T09:41:07.568Z,10.52
2023-01-20T09:43:57.894Z,11.23
2023-01-20T09:47:10.129Z,9.93
2023-01-20T09:50:09.180Z,10.52
2023-01-20T09:52:57.060Z,10.35
2023-01-20T09:55:31.843Z,10.25
2023-01-20T09:58:13.002Z,9.63
2023-01-20T10:00:47.978Z,10.25
2023-01-20T10:03:25.542Z,10.05
2023-01-20T10:06:00.888Z,9.20
2023-01-20T10:08:35.943Z,9.60
2023-01-20T10:11:11.326Z,9.32
2023-01-20T10:13:47.676Z,9.25
2023-01-20T10:16:28.710Z,9.23
2023-01-20T10:19:04.086Z,9.10
2023-01-20T10:21:41.861Z,9.55
2023-01-20T10:24:16.384Z,8.73
2023-01-20T10:26:52.035Z,9.43
2023-01-20T10:29:29.553Z,8.75
2023-01-20T10:32:02.476Z,9.15
2023-01-20T10:34:43.146Z,9.10
2023-01-20T10:37:15.412Z,8.73
2023-01-20T10:39:51.051Z,9.05
2023-01-20T10:42:21.753Z,9.70
2023-01-20T10:44:53.442Z,9.30
2023-01-20T10:47:44.982Z,8.60
2023-01-20T10:50:47.539Z,8.70
2023-01-20T10:53:43.615Z,8.68
2023-01-20T10:56:32.989Z,8.35
2023-01-20T10:59:10.475Z,8.77
2023-01-20T11:01:40.764Z,9.40
2023-01-20T11:04:20.268Z,7.93
2023-01-20T11:06:57.569Z,9.10
2023-01-20T11:09:37.650Z,8.43
2023-01-20T11:14:43.951Z,8.85
2023-01-20T11:17:17.377Z,8.60
2023-01-20T11:19:51.596Z,8.77
2023-01-20T11:22:30.577Z,7.88
2023-01-20T11:25:04.174Z,8.77
2023-01-20T11:27:45.058Z,8.68
2023-01-20T11:30:27.378Z,9.48
2023-01-20T11:33:18.602Z,8.23
2023-01-20T11:36:02.373Z,8.07
2023-01-20T11:38:34.145Z,8.20
2023-01-20T11:41:05.281Z,7.95
2023-01-20T11:43:38.646Z,7.78
2023-01-20T11:46:16.361Z,7.93
2023-01-20T11:48:45.969Z,7.55
2023-01-20T11:51:26.032Z,7.97
2023-01-20T11:54:09.475Z,7.75
2023-01-20T11:56:44.509Z,8.07
2023-01-20T11:59:28.981Z,8.70
2023-01-20T12:02:21.102Z,9.25
2023-01-20T12:05:09.554Z,8.63
2023-01-20T12:07:44.237Z,8.85
2023-01-20T12:10:18.766Z,10.05
2023-01-20T12:12:54.199Z,8.75
2023-01-20T12:15:26.638Z,9.55
2023-01-20T12:18:00.994Z,8.85
2023-01-20T12:20:53.532Z,9.75
2023-01-20T12:23:39.307Z,10.40
2023-01-20T12:26:11.907Z,10.73
2023-01-20T12:28:58.654Z,10.52
2023-01-20T12:31:28.411Z,10.48
2023-01-20T12:34:03.915Z,11.05
2023-01-20T12:36:59.236Z,9.40
2023-01-20T12:39:40.847Z,9.52
2023-01-20T12:42:56.435Z,10.32
2023-01-20T12:45:46.548Z,9.45
2023-01-20T12:48:33.483Z,9.00
2023-01-20T12:51:20.899Z,9.00
2023-01-20T12:54:27.137Z,8.48
2023-01-20T12:57:08.952Z,8.18
2023-01-20T12:59:48.635Z,8.65
2023-01-20T13:02:53.614Z,8.10
2023-01-20T13:05:49.193Z,8.93
2023-01-20T13:08:24.581Z,8.98
2023-01-20T13:11:08.558Z,8.93
2023-01-20T13:13:56.886Z,8.73
2023-01-20T13:16:40.421Z,10.00
2023-01-20T13:19:17.752Z,9.05
2023-01-20T13:21:56.561Z,9.98
2023-01-20T13:24:33.365Z,9.77
2023-01-20T13:27:04.073Z,9.52
2023-01-20T13:29:53.794Z,9.77
2023-01-20T13:32:45.500Z,10.13
2023-01-20T13:35:49.857Z,10.23
2023-01-20T13:38:23.280Z,9.32
2023-01-20T13:40:56.176Z,8.75
2023-01-20T13:43:49.277Z,9.55
2023-01-20T13:46:50.265Z,9.68
2023-01-20T13:49:50.354Z,8.68
2023-01-20T13:53:16.968Z,10.32
2023-01-20T13:56:02.817Z,9.32
2023-01-20T13:58:34.617Z,9.40
2023-01-20T14:01:06.332Z,9.45
2023-01-20T14:03:39.471Z,9.82
2023-01-20T14:06:24.100Z,10.57
2023-01-20T14:08:56.631Z,10.75
2023-01-20T14:11:29.321Z,12.02
2023-01-20T14:14:01.907Z,11.95
2023-01-20T14:16:40.951Z,11.38
2023-01-20T14:19:23.435Z,11.88
2023-01-20T14:21:56.260Z,11.52
2023-01-20T14:24:32.473Z,12.57
2023-01-20T14:27:11.191Z,12.27
2023-01-20T14:29:42.135Z,14.07
2023-01-20T14:32:23.555Z,13.60
2023-01-20T14:34:56.687Z,12.60
2023-01-20T14:37:29.928Z,12.63
2023-01-20T14:40:07.978Z,10.68
2023-01-20T14:42:38.832Z,6.03
2023-01-20T14:45:20.302Z,5.30
2023-01-20T14:47:51.438Z,3.92
2023-01-20T14:50:22.972Z,4.00
2023-01-20T14:52:52.294Z,3.95
2023-01-20T14:55:35.693Z,3.10
2023-01-20T14:58:09.833Z,2.75
2023-01-20T15:00:44.751Z,3.00
2023-01-20T15:03:21.840Z,2.67
2023-01-20T15:05:58.219Z,3.00
2023-01-20T15:08:29.948Z,3.10
2023-01-20T15:11:26.037Z,2.83
2023-01-20T15:14:13.587Z,3.55
2023-01-20T15:16:50.301Z,2.38
2023-01-20T15:19:46.274Z,2.55
2023-01-20T15:22:23.260Z,2.75
2023-01-20T15:24:56.287Z,3.38
2023-01-20T15:27:33.534Z,3.22
2023-01-20T15:30:21.178Z,3.03
2023-01-20T15:35:25.934Z,2.88
2023-01-20T15:37:55.760Z,2.97
2023-01-20T15:40:26.975Z,2.83
2023-01-20T15:42:57.653Z,2.97
2023-01-20T15:45:26.961Z,3.45
2023-01-20T15:47:56.501Z,2.72
2023-01-20T15:50:26.998Z,2.85
2023-01-20T15:52:56.692Z,2.85
2023-01-20T15:55:29.007Z,3.38
2023-01-20T15:57:59.636Z,3.38
2023-01-20T16:00:30.816Z,3.28
2023-01-20T16:03:00.148Z,4.72
2023-01-20T16:05:29.606Z,3.78
2023-01-20T16:08:02.655Z,3.35
2023-01-20T16:10:31.893Z,3.20
2023-01-20T16:13:02.613Z,3.35
2023-01-20T16:15:31.884Z,4.53
2023-01-20T16:18:01.012Z,3.85
2023-01-20T16:20:30.240Z,4.85
2023-01-20T16:22:59.373Z,4.55
2023-01-20T16:25:29.012Z,4.57
2023-01-20T16:27:59.314Z,5.03
2023-01-20T16:30:30.176Z,6.28
2023-01-20T16:32:59.301Z,6.30
2023-01-20T16:35:28.643Z,5.18
2023-01-20T16:37:57.744Z,5.85
2023-01-20T16:40:26.813Z,5.03
2023-01-20T16:42:56.964Z,3.55
2023-01-20T16:45:30.203Z,4.47
2023-01-20T16:47:59.417Z,3.83
2023-01-20T16:50:28.633Z,4.88
2023-01-20T16:52:58.343Z,4.18
2023-01-20T16:55:28.032Z,3.58
2023-01-20T16:57:57.399Z,3.42
2023-01-20T17:00:26.566Z,3.70
2023-01-20T17:02:57.210Z,3.90
2023-01-20T17:05:28.530Z,3.90
2023-01-20T17:07:59.743Z,3.60
2023-01-20T17:10:32.335Z,3.80
2023-01-20T17:13:01.876Z,3.92
2023-01-20T17:15:30.963Z,3.75
2023-01-20T17:18:01.849Z,4.35
2023-01-20T17:20:32.501Z,3.97
2023-01-20T17:23:01.747Z,3.97
2023-01-20T17:25:31.011Z,4.45
2023-01-20T17:28:00.264Z,4.80
2023-01-20T17:30:29.741Z,4.72
2023-01-20T17:32:58.962Z,4.07
2023-01-20T17:35:29.860Z,3.38
2023-01-20T17:37:59.691Z,4.38
2023-01-20T17:40:29.169Z,4.25
2023-01-20T17:42:58.483Z,4.18
2023-01-20T17:45:29.423Z,3.55
2023-01-20T17:47:58.569Z,3.38
2023-01-20T17:50:30.867Z,3.55
2023-01-20T17:53:01.640Z,4.05
2023-01-20T17:55:33.951Z,4.00
2023-01-20T17:58:03.720Z,4.03
2023-01-20T18:00:33.034Z,4.30
2023-01-20T18:03:02.263Z,3.90
2023-01-20T18:05:35.345Z,3.70
2023-01-20T18:08:04.954Z,3.78
2023-01-20T18:10:34.398Z,3.80
2023-01-20T18:13:03.619Z,4.20
2023-01-20T18:15:33.171Z,3.60
2023-01-20T18:18:02.610Z,3.78
2023-01-20T18:20:33.787Z,4.00
2023-01-20T18:23:03.333Z,3.80
2023-01-20T18:25:32.587Z,4.05
2023-01-20T18:28:01.955Z,3.55
2023-01-20T18:30:32.631Z,3.65
2023-01-20T18:33:02.269Z,3.78
2023-01-20T18:35:35.649Z,3.72
2023-01-20T18:38:05.739Z,3.63
2023-01-20T18:40:35.307Z,3.70
2023-01-20T18:43:04.845Z,4.30
2023-01-20T18:45:34.252Z,4.07
2023-01-20T18:48:03.873Z,4.65
2023-01-20T18:50:34.853Z,4.10
2023-01-20T18:53:04.145Z,3.72
2023-01-20T18:55:34.430Z,3.92
2023-01-20T18:58:03.961Z,3.90
2023-01-20T19:00:33.281Z,3.85
2023-01-20T19:03:02.998Z,3.72
2023-01-20T19:05:34.759Z,4.88
2023-01-20T19:08:05.139Z,3.83
2023-01-20T19:10:34.764Z,3.38
2023-01-20T19:13:03.805Z,3.67
2023-01-20T19:15:33.786Z,4.05
2023-01-20T19:18:03.295Z,4.93
2023-01-20T19:20:33.953Z,3.83
2023-01-20T19:23:03.286Z,3.83
2023-01-20T19:25:32.669Z,3.53
2023-01-20T19:28:05.719Z,3.88
2023-01-20T19:30:35.258Z,3.65
2023-01-20T19:33:04.657Z,3.28
2023-01-20T19:35:35.607Z,3.55
2023-01-20T19:38:05.405Z,3.83
2023-01-20T19:40:35.569Z,3.65
2023-01-20T19:43:07.172Z,3.30
2023-01-20T19:45:45.859Z,3.92
2023-01-20T19:48:15.502Z,3.70
2023-01-20T19:50:47.042Z,3.65
2023-01-20T19:53:17.901Z,3.40
2023-01-20T19:55:47.574Z,3.38
2023-01-20T19:58:17.080Z,3.15
2023-01-20T20:00:46.627Z,3.90
2023-01-20T20:03:15.741Z,4.40
2023-01-20T20:05:46.476Z,3.75
2023-01-20T20:08:15.818Z,3.65
2023-01-20T20:10:45.504Z,3.60
2023-01-20T20:13:15.792Z,4.10
2023-01-20T20:15:45.425Z,3.80
2023-01-20T20:18:15.758Z,4.40
2023-01-20T20:20:47.605Z,3.85
2023-01-20T20:23:18.200Z,4.05
2023-01-20T20:25:52.137Z,4.65
2023-01-20T20:28:21.518Z,4.10
2023-01-20T20:30:51.151Z,4.25
2023-01-20T20:33:20.766Z,4.40
2023-01-20T20:35:51.507Z,4.10
2023-01-20T20:38:20.957Z,4.28
2023-01-20T20:40:50.077Z,4.88
2023-01-20T20:43:23.056Z,4.15
2023-01-20T20:45:53.066Z,4.22
2023-01-20T20:48:22.349Z,4.55
2023-01-20T20:50:53.346Z,4.25
2023-01-20T20:53:23.190Z,4.65
2023-01-20T20:55:55.379Z,4.75
2023-01-20T20:58:24.761Z,4.50
2023-01-20T21:00:53.943Z,5.00
2023-01-20T21:03:26.393Z,4.60
2023-01-20T21:05:57.903Z,4.90
2023-01-20T21:08:27.454Z,4.90
2023-01-20T21:11:01.063Z,5.30
2023-01-20T21:13:31.427Z,4.75
2023-01-20T21:16:03.791Z,4.70
2023-01-20T21:18:34.249Z,4.72
2023-01-20T21:21:08.705Z,4.70
2023-01-20T21:23:40.681Z,4.88
2023-01-20T21:26:14.121Z,4.88
2023-01-20T21:28:45.608Z,5.07
2023-01-20T21:31:17.225Z,5.30
2023-01-20T21:33:46.894Z,4.43
2023-01-20T21:36:17.680Z,5.30
2023-01-20T21:38:46.782Z,4.88
2023-01-20T21:41:18.380Z,4.90
2023-01-20T21:44:06.645Z,5.10
2023-01-20T21:46:39.615Z,4.53
2023-01-20T21:49:27.332Z,5.03
2023-01-20T21:52:17.668Z,4.63
2023-01-20T21:54:47.054Z,4.90
2023-01-20T21:57:16.497Z,4.90
2023-01-20T21:59:46.006Z,4.80
2023-01-20T22:02:16.403Z,4.85
2023-01-20T22:04:46.929Z,5.25
2023-01-20T22:07:17.627Z,4.53
2023-01-20T22:09:46.881Z,4.47
2023-01-20T22:12:16.501Z,4.80
2023-01-20T22:14:45.709Z,4.85
2023-01-20T22:17:15.025Z,5.05
2023-01-20T22:19:44.624Z,4.82
2023-01-20T22:22:15.273Z,4.72
2023-01-20T22:24:45.984Z,5.10
2023-01-20T22:27:15.223Z,4.57
2023-01-20T22:29:44.433Z,4.63
2023-01-20T22:32:13.627Z,4.80
2023-01-20T22:34:43.357Z,4.40
2023-01-20T22:37:12.644Z,4.65
2023-01-20T22:39:43.642Z,4.13
2023-01-20T22:42:14.148Z,4.72
2023-01-20T22:44:43.251Z,3.95
2023-01-20T22:47:12.567Z,3.97
2023-01-20T22:49:41.817Z,3.45
2023-01-20T22:52:10.952Z,4.15
2023-01-20T22:54:40.160Z,3.88
2023-01-20T22:57:09.248Z,4.00
2023-01-20T22:59:39.781Z,4.63
2023-01-20T23:02:09.791Z,4.30
2023-01-20T23:04:39.038Z,3.90
2023-01-20T23:07:08.578Z,3.47
2023-01-20T23:09:37.707Z,3.50
2023-01-20T23:12:07.527Z,3.80
2023-01-20T23:14:54.358Z,4.07
2023-01-20T23:17:24.922Z,3.40
2023-01-20T23:19:54.575Z,3.97
2023-01-20T23:22:25.415Z,4.18
2023-01-20T23:24:54.515Z,3.80
2023-01-20T23:27:23.576Z,4.22
2023-01-20T23:29:53.040Z,4.10
2023-01-20T23:32:27.690Z,3.85
2023-01-20T23:34:56.974Z,4.15
2023-01-20T23:37:32.082Z,4.05
2023-01-20T23:40:01.847Z,3.95
2023-01-20T23:42:36.845Z,3.90
2023-01-20T23:45:08.007Z,4.25
2023-01-20T23:47:38.623Z,6.85
2023-01-20T23:50:09.198Z,6.40
2023-01-20T23:52:38.320Z,6.47
2023-01-20T23:55:10.951Z,6.68
2023-01-20T23:57:43.135Z,6.45
